sensor_id;sensor_type;location;lat;lon;timestamp;P1;durP1;ratioP1;P2;durP2;ratioP2
14994;SDS011;7593;49.006;8.372;2023-04-01T00:01:01;6.80;;;3.15;;
14994;SDS011;7593;49.006;8.372;2023-04-01T00:03:28;4.03;;;2.17;;
14994;SDS011;7593;49.006;8.372;2023-04-01T00:05:56;5.55;;;1.75;;
14994;SDS011;7593;49.006;8.372;2023-04-01T00:08:23;4.13;;;1.95;;
14994;SDS011;7593;49.006;8.372;2023-04-01T00:10:51;3.55;;;1.52;;
14994;SDS011;7593;49.006;8.372;2023-04-01T00:13:20;3.75;;;1.30;;
14994;SDS011;7593;49.006;8.372;2023-04-01T00:15:47;5.38;;;1.50;;
14994;SDS011;7593;49.006;8.372;2023-04-01T00:18:15;5.03;;;2.10;;
14994;SDS011;7593;49.006;8.372;2023-04-01T00:20:43;3.30;;;1.30;;
14994;SDS011;7593;49.006;8.372;2023-04-01T00:23:10;5.40;;;2.00;;
14994;SDS011;7593;49.006;8.372;2023-04-01T00:25:37;3.17;;;1.60;;
14994;SDS011;7593;49.006;8.372;2023-04-01T00:28:03;4.03;;;1.48;;
14994;SDS011;7593;49.006;8.372;2023-04-01T00:30:32;7.55;;;3.03;;
14994;SDS011;7593;49.006;8.372;2023-04-01T00:32:58;4.22;;;1.52;;
14994;SDS011;7593;49.006;8.372;2023-04-01T00:35:25;4.30;;;1.30;;
14994;SDS011;7593;49.006;8.372;2023-04-01T00:37:52;3.05;;;1.55;;
14994;SDS011;7593;49.006;8.372;2023-04-01T00:40:24;3.40;;;1.58;;
14994;SDS011;7593;49.006;8.372;2023-04-01T00:42:53;5.15;;;1.73;;
14994;SDS011;7593;49.006;8.372;2023-04-01T00:45:23;3.97;;;1.50;;
14994;SDS011;7593;49.006;8.372;2023-04-01T00:47:55;2.60;;;1.55;;
14994;SDS011;7593;49.006;8.372;2023-04-01T00:50:22;3.90;;;1.38;;
14994;SDS011;7593;49.006;8.372;2023-04-01T00:52:51;3.25;;;1.35;;
14994;SDS011;7593;49.006;8.372;2023-04-01T00:55:19;5.07;;;1.48;;
14994;SDS011;7593;49.006;8.372;2023-04-01T00:57:47;2.78;;;1.35;;
14994;SDS011;7593;49.006;8.372;2023-04-01T01:00:16;3.03;;;1.20;;
14994;SDS011;7593;49.006;8.372;2023-04-01T01:02:45;3.42;;;1.25;;
14994;SDS011;7593;49.006;8.372;2023-04-01T01:05:14;4.78;;;1.48;;
14994;SDS011;7593;49.006;8.372;2023-04-01T01:07:42;2.72;;;1.40;;
14994;SDS011;7593;49.006;8.372;2023-04-01T01:10:14;3.35;;;1.30;;
14994;SDS011;7593;49.006;8.372;2023-04-01T01:12:44;3.03;;;1.42;;
14994;SDS011;7593;49.006;8.372;2023-04-01T01:15:16;4.75;;;1.38;;
14994;SDS011;7593;49.006;8.372;2023-04-01T01:17:50;3.30;;;1.30;;
14994;SDS011;7593;49.006;8.372;2023-04-01T01:23:28;2.10;;;1.20;;
14994;SDS011;7593;49.006;8.372;2023-04-01T01:26:29;3.45;;;1.30;;
14994;SDS011;7593;49.006;8.372;2023-04-01T01:29:07;3.42;;;1.48;;
14994;SDS011;7593;49.006;8.372;2023-04-01T01:31:46;2.22;;;1.00;;
14994;SDS011;7593;49.006;8.372;2023-04-01T01:34:21;2.28;;;1.00;;
14994;SDS011;7593;49.006;8.372;2023-04-01T01:36:53;2.03;;;0.88;;
14994;SDS011;7593;49.006;8.372;2023-04-01T01:39:23;2.38;;;0.93;;
14994;SDS011;7593;49.006;8.372;2023-04-01T01:41:54;2.35;;;1.13;;
14994;SDS011;7593;49.006;8.372;2023-04-01T01:44:23;2.03;;;1.05;;
14994;SDS011;7593;49.006;8.372;2023-04-01T01:46:51;2.35;;;0.93;;
14994;SDS011;7593;49.006;8.372;2023-04-01T01:49:18;2.72;;;1.10;;
14994;SDS011;7593;49.006;8.372;2023-04-01T01:51:46;1.83;;;0.90;;
14994;SDS011;7593;49.006;8.372;2023-04-01T01:54:14;3.22;;;1.17;;
14994;SDS011;7593;49.006;8.372;2023-04-01T01:56:43;2.25;;;1.17;;
14994;SDS011;7593;49.006;8.372;2023-04-01T01:59:12;1.80;;;1.10;;
14994;SDS011;7593;49.006;8.372;2023-04-01T02:01:42;2.20;;;1.10;;
14994;SDS011;7593;49.006;8.372;2023-04-01T02:04:11;1.63;;;0.95;;
14994;SDS011;7593;49.006;8.372;2023-04-01T02:06:42;1.13;;;0.73;;
14994;SDS011;7593;49.006;8.372;2023-04-01T02:09:12;0.85;;;0.70;;
14994;SDS011;7593;49.006;8.372;2023-04-01T02:11:41;0.70;;;0.60;;
14994;SDS011;7593;49.006;8.372;2023-04-01T02:14:13;2.58;;;0.75;;
14994;SDS011;7593;49.006;8.372;2023-04-01T02:16:43;1.75;;;0.65;;
14994;SDS011;7593;49.006;8.372;2023-04-01T02:19:13;0.93;;;0.65;;
14994;SDS011;7593;49.006;8.372;2023-04-01T02:21:47;2.13;;;0.80;;
14994;SDS011;7593;49.006;8.372;2023-04-01T02:24:17;1.02;;;0.80;;
14994;SDS011;7593;49.006;8.372;2023-04-01T02:26:48;0.90;;;0.60;;
14994;SDS011;7593;49.006;8.372;2023-04-01T02:29:17;1.42;;;0.90;;
14994;SDS011;7593;49.006;8.372;2023-04-01T02:31:45;1.65;;;0.70;;
14994;SDS011;7593;49.006;8.372;2023-04-01T02:34:13;2.55;;;0.80;;
14994;SDS011;7593;49.006;8.372;2023-04-01T02:36:40;1.05;;;0.60;;
14994;SDS011;7593;49.006;8.372;2023-04-01T02:39:08;1.23;;;0.70;;
14994;SDS011;7593;49.006;8.372;2023-04-01T02:41:38;1.10;;;0.60;;
14994;SDS011;7593;49.006;8.372;2023-04-01T02:44:07;0.80;;;0.65;;
14994;SDS011;7593;49.006;8.372;2023-04-01T02:46:35;1.50;;;0.70;;
14994;SDS011;7593;49.006;8.372;2023-04-01T02:49:02;1.38;;;0.77;;
14994;SDS011;7593;49.006;8.372;2023-04-01T02:51:29;1.70;;;0.80;;
14994;SDS011;7593;49.006;8.372;2023-04-01T02:53:56;1.70;;;0.73;;
14994;SDS011;7593;49.006;8.372;2023-04-01T02:56:23;1.63;;;0.65;;
14994;SDS011;7593;49.006;8.372;2023-04-01T02:58:51;1.77;;;1.05;;
14994;SDS011;7593;49.006;8.372;2023-04-01T03:01:19;1.50;;;0.70;;
14994;SDS011;7593;49.006;8.372;2023-04-01T03:03:46;1.55;;;0.85;;
14994;SDS011;7593;49.006;8.372;2023-04-01T03:06:14;2.67;;;1.00;;
14994;SDS011;7593;49.006;8.372;2023-04-01T03:08:42;1.38;;;0.73;;
14994;SDS011;7593;49.006;8.372;2023-04-01T03:11:10;1.50;;;0.73;;
14994;SDS011;7593;49.006;8.372;2023-04-01T03:13:37;0.85;;;0.80;;
14994;SDS011;7593;49.006;8.372;2023-04-01T03:16:04;0.80;;;0.60;;
14994;SDS011;7593;49.006;8.372;2023-04-01T03:18:32;0.82;;;0.65;;
14994;SDS011;7593;49.006;8.372;2023-04-01T03:21:11;0.80;;;0.75;;
14994;SDS011;7593;49.006;8.372;2023-04-01T03:23:42;0.80;;;0.70;;
14994;SDS011;7593;49.006;8.372;2023-04-01T03:26:09;2.20;;;0.75;;
14994;SDS011;7593;49.006;8.372;2023-04-01T03:28:36;2.65;;;0.90;;
14994;SDS011;7593;49.006;8.372;2023-04-01T03:31:03;1.02;;;0.80;;
14994;SDS011;7593;49.006;8.372;2023-04-01T03:33:30;1.60;;;0.63;;
14994;SDS011;7593;49.006;8.372;2023-04-01T03:35:58;2.33;;;0.80;;
14994;SDS011;7593;49.006;8.372;2023-04-01T03:38:25;0.60;;;0.60;;
14994;SDS011;7593;49.006;8.372;2023-04-01T03:40:52;2.63;;;1.05;;
14994;SDS011;7593;49.006;8.372;2023-04-01T03:43:19;1.55;;;0.90;;
14994;SDS011;7593;49.006;8.372;2023-04-01T03:45:46;2.88;;;0.90;;
14994;SDS011;7593;49.006;8.372;2023-04-01T03:48:16;2.45;;;1.00;;
14994;SDS011;7593;49.006;8.372;2023-04-01T03:50:43;1.58;;;0.80;;
14994;SDS011;7593;49.006;8.372;2023-04-01T03:53:11;3.20;;;1.10;;
14994;SDS011;7593;49.006;8.372;2023-04-01T03:55:39;1.52;;;0.82;;
14994;SDS011;7593;49.006;8.372;2023-04-01T03:58:06;2.67;;;0.90;;
14994;SDS011;7593;49.006;8.372;2023-04-01T04:00:34;1.42;;;0.60;;
14994;SDS011;7593;49.006;8.372;2023-04-01T04:03:01;3.10;;;1.02;;
14994;SDS011;7593;49.006;8.372;2023-04-01T04:05:28;2.80;;;1.20;;
14994;SDS011;7593;49.006;8.372;2023-04-01T04:07:54;1.90;;;1.10;;
14994;SDS011;7593;49.006;8.372;2023-04-01T04:10:22;2.55;;;1.23;;
14994;SDS011;7593;49.006;8.372;2023-04-01T04:12:50;2.53;;;0.93;;
14994;SDS011;7593;49.006;8.372;2023-04-01T04:15:17;3.13;;;1.13;;
14994;SDS011;7593;49.006;8.372;2023-04-01T04:17:44;3.00;;;1.10;;
14994;SDS011;7593;49.006;8.372;2023-04-01T04:20:11;4.05;;;1.20;;
14994;SDS011;7593;49.006;8.372;2023-04-01T04:22:38;2.80;;;1.38;;
14994;SDS011;7593;49.006;8.372;2023-04-01T04:25:05;3.53;;;1.10;;
14994;SDS011;7593;49.006;8.372;2023-04-01T04:27:34;3.13;;;1.10;;
14994;SDS011;7593;49.006;8.372;2023-04-01T04:30:01;2.67;;;1.27;;
14994;SDS011;7593;49.006;8.372;2023-04-01T04:32:29;4.90;;;1.20;;
14994;SDS011;7593;49.006;8.372;2023-04-01T04:34:56;3.92;;;1.20;;
14994;SDS011;7593;49.006;8.372;2023-04-01T04:37:23;2.53;;;1.00;;
14994;SDS011;7593;49.006;8.372;2023-04-01T04:39:50;3.40;;;1.30;;
14994;SDS011;7593;49.006;8.372;2023-04-01T04:42:17;4.93;;;1.35;;
14994;SDS011;7593;49.006;8.372;2023-04-01T04:44:45;3.40;;;1.30;;
14994;SDS011;7593;49.006;8.372;2023-04-01T04:47:12;3.83;;;1.70;;
14994;SDS011;7593;49.006;8.372;2023-04-01T04:49:39;3.22;;;1.30;;
14994;SDS011;7593;49.006;8.372;2023-04-01T04:52:06;5.18;;;1.55;;
14994;SDS011;7593;49.006;8.372;2023-04-01T04:54:33;3.38;;;1.30;;
14994;SDS011;7593;49.006;8.372;2023-04-01T04:56:59;4.30;;;1.65;;
14994;SDS011;7593;49.006;8.372;2023-04-01T04:59:26;2.60;;;1.25;;
14994;SDS011;7593;49.006;8.372;2023-04-01T05:01:54;4.47;;;1.30;;
14994;SDS011;7593;49.006;8.372;2023-04-01T05:04:21;4.95;;;1.40;;
14994;SDS011;7593;49.006;8.372;2023-04-01T05:06:48;4.03;;;1.25;;
14994;SDS011;7593;49.006;8.372;2023-04-01T05:09:16;3.53;;;1.30;;
14994;SDS011;7593;49.006;8.372;2023-04-01T05:11:43;3.17;;;1.40;;
14994;SDS011;7593;49.006;8.372;2023-04-01T05:14:12;3.58;;;1.35;;
14994;SDS011;7593;49.006;8.372;2023-04-01T05:16:39;1.50;;;0.98;;
14994;SDS011;7593;49.006;8.372;2023-04-01T05:19:07;3.78;;;1.50;;
14994;SDS011;7593;49.006;8.372;2023-04-01T05:21:34;3.22;;;1.00;;
14994;SDS011;7593;49.006;8.372;2023-04-01T05:24:01;2.30;;;0.90;;
14994;SDS011;7593;49.006;8.372;2023-04-01T05:26:27;3.28;;;0.80;;
14994;SDS011;7593;49.006;8.372;2023-04-01T05:28:54;2.72;;;1.05;;
14994;SDS011;7593;49.006;8.372;2023-04-01T05:31:21;2.63;;;1.20;;
14994;SDS011;7593;49.006;8.372;2023-04-01T05:33:48;2.28;;;0.90;;
14994;SDS011;7593;49.006;8.372;2023-04-01T05:36:17;2.53;;;0.80;;
14994;SDS011;7593;49.006;8.372;2023-04-01T05:38:43;1.63;;;1.00;;
14994;SDS011;7593;49.006;8.372;2023-04-01T05:41:12;1.85;;;1.08;;
14994;SDS011;7593;49.006;8.372;2023-04-01T05:43:39;1.85;;;1.00;;
14994;SDS011;7593;49.006;8.372;2023-04-01T05:46:07;3.45;;;1.10;;
14994;SDS011;7593;49.006;8.372;2023-04-01T05:48:34;2.03;;;0.93;;
14994;SDS011;7593;49.006;8.372;2023-04-01T05:51:01;2.70;;;1.00;;
14994;SDS011;7593;49.006;8.372;2023-04-01T05:53:29;1.42;;;0.80;;
14994;SDS011;7593;49.006;8.372;2023-04-01T05:55:56;2.30;;;1.10;;
14994;SDS011;7593;49.006;8.372;2023-04-01T05:58:27;5.22;;;1.23;;
14994;SDS011;7593;49.006;8.372;2023-04-01T06:00:59;2.65;;;0.90;;
14994;SDS011;7593;49.006;8.372;2023-04-01T06:03:27;3.22;;;1.30;;
14994;SDS011;7593;49.006;8.372;2023-04-01T06:05:54;3.65;;;0.98;;
14994;SDS011;7593;49.006;8.372;2023-04-01T06:08:21;1.98;;;0.95;;
14994;SDS011;7593;49.006;8.372;2023-04-01T06:10:51;2.83;;;1.20;;
14994;SDS011;7593;49.006;8.372;2023-04-01T06:13:29;1.70;;;1.10;;
14994;SDS011;7593;49.006;8.372;2023-04-01T06:16:07;2.30;;;0.93;;
14994;SDS011;7593;49.006;8.372;2023-04-01T06:21:46;3.22;;;0.85;;
14994;SDS011;7593;49.006;8.372;2023-04-01T06:24:35;2.15;;;0.90;;
14994;SDS011;7593;49.006;8.372;2023-04-01T06:27:18;4.60;;;1.42;;
14994;SDS011;7593;49.006;8.372;2023-04-01T06:29:55;4.97;;;2.35;;
14994;SDS011;7593;49.006;8.372;2023-04-01T06:32:45;3.35;;;1.10;;
14994;SDS011;7593;49.006;8.372;2023-04-01T06:35:25;2.35;;;1.00;;
14994;SDS011;7593;49.006;8.372;2023-04-01T06:41:01;3.45;;;1.30;;
14994;SDS011;7593;49.006;8.372;2023-04-01T06:43:56;2.55;;;1.30;;
14994;SDS011;7593;49.006;8.372;2023-04-01T06:46:33;5.15;;;1.55;;
14994;SDS011;7593;49.006;8.372;2023-04-01T06:49:13;2.67;;;1.27;;
14994;SDS011;7593;49.006;8.372;2023-04-01T06:51:57;3.28;;;1.10;;
14994;SDS011;7593;49.006;8.372;2023-04-01T06:54:32;3.88;;;1.20;;
14994;SDS011;7593;49.006;8.372;2023-04-01T06:57:02;2.58;;;1.40;;
14994;SDS011;7593;49.006;8.372;2023-04-01T06:59:36;2.85;;;1.33;;
14994;SDS011;7593;49.006;8.372;2023-04-01T07:02:04;5.20;;;1.40;;
14994;SDS011;7593;49.006;8.372;2023-04-01T07:04:43;5.13;;;1.80;;
14994;SDS011;7593;49.006;8.372;2023-04-01T07:07:14;6.10;;;1.90;;
14994;SDS011;7593;49.006;8.372;2023-04-01T07:09:45;2.13;;;1.30;;
14994;SDS011;7593;49.006;8.372;2023-04-01T07:12:18;2.97;;;1.30;;
14994;SDS011;7593;49.006;8.372;2023-04-01T07:14:55;3.50;;;1.42;;
14994;SDS011;7593;49.006;8.372;2023-04-01T07:17:25;4.35;;;1.60;;
14994;SDS011;7593;49.006;8.372;2023-04-01T07:19:56;2.55;;;1.10;;
14994;SDS011;7593;49.006;8.372;2023-04-01T07:22:29;3.70;;;1.10;;
14994;SDS011;7593;49.006;8.372;2023-04-01T07:24:59;4.22;;;1.25;;
14994;SDS011;7593;49.006;8.372;2023-04-01T07:27:29;5.05;;;1.48;;
14994;SDS011;7593;49.006;8.372;2023-04-01T07:29:57;3.50;;;1.60;;
14994;SDS011;7593;49.006;8.372;2023-04-01T07:32:27;6.03;;;1.65;;
14994;SDS011;7593;49.006;8.372;2023-04-01T07:35:07;4.60;;;1.60;;
14994;SDS011;7593;49.006;8.372;2023-04-01T07:37:45;7.35;;;1.60;;
14994;SDS011;7593;49.006;8.372;2023-04-01T07:40:26;5.43;;;1.67;;
14994;SDS011;7593;49.006;8.372;2023-04-01T07:43:08;3.78;;;1.45;;
14994;SDS011;7593;49.006;8.372;2023-04-01T07:45:51;5.18;;;1.73;;
14994;SDS011;7593;49.006;8.372;2023-04-01T07:48:28;5.30;;;1.50;;
14994;SDS011;7593;49.006;8.372;2023-04-01T07:51:00;6.32;;;1.63;;
14994;SDS011;7593;49.006;8.372;2023-04-01T07:53:31;5.05;;;1.63;;
14994;SDS011;7593;49.006;8.372;2023-04-01T07:56:05;4.63;;;1.35;;
14994;SDS011;7593;49.006;8.372;2023-04-01T07:58:37;6.35;;;1.85;;
14994;SDS011;7593;49.006;8.372;2023-04-01T08:01:13;3.88;;;1.38;;
14994;SDS011;7593;49.006;8.372;2023-04-01T08:03:56;5.60;;;1.73;;
14994;SDS011;7593;49.006;8.372;2023-04-01T08:06:39;3.63;;;1.40;;
14994;SDS011;7593;49.006;8.372;2023-04-01T08:09:12;6.15;;;1.48;;
14994;SDS011;7593;49.006;8.372;2023-04-01T08:11:52;6.65;;;1.73;;
14994;SDS011;7593;49.006;8.372;2023-04-01T08:14:28;4.43;;;1.65;;
14994;SDS011;7593;49.006;8.372;2023-04-01T08:17:01;5.47;;;1.40;;
14994;SDS011;7593;49.006;8.372;2023-04-01T08:19:39;2.65;;;1.17;;
14994;SDS011;7593;49.006;8.372;2023-04-01T08:22:22;3.85;;;1.55;;
14994;SDS011;7593;49.006;8.372;2023-04-01T08:24:53;3.63;;;1.25;;
14994;SDS011;7593;49.006;8.372;2023-04-01T08:27:26;3.63;;;1.45;;
14994;SDS011;7593;49.006;8.372;2023-04-01T08:29:58;5.10;;;1.58;;
14994;SDS011;7593;49.006;8.372;2023-04-01T08:32:31;5.03;;;1.70;;
14994;SDS011;7593;49.006;8.372;2023-04-01T08:35:07;5.45;;;1.70;;
14994;SDS011;7593;49.006;8.372;2023-04-01T08:37:36;6.78;;;1.90;;
14994;SDS011;7593;49.006;8.372;2023-04-01T08:40:13;6.28;;;1.75;;
14994;SDS011;7593;49.006;8.372;2023-04-01T08:42:58;5.43;;;1.60;;
14994;SDS011;7593;49.006;8.372;2023-04-01T08:48:49;4.13;;;1.25;;
14994;SDS011;7593;49.006;8.372;2023-04-01T08:51:38;4.30;;;1.30;;
14994;SDS011;7593;49.006;8.372;2023-04-01T08:54:25;3.75;;;1.13;;
14994;SDS011;7593;49.006;8.372;2023-04-01T08:57:08;2.33;;;1.00;;
14994;SDS011;7593;49.006;8.372;2023-04-01T08:59:47;2.17;;;1.05;;
14994;SDS011;7593;49.006;8.372;2023-04-01T09:02:29;3.80;;;1.63;;
14994;SDS011;7593;49.006;8.372;2023-04-01T09:05:22;3.25;;;1.20;;
14994;SDS011;7593;49.006;8.372;2023-04-01T09:08:16;2.28;;;1.40;;
14994;SDS011;7593;49.006;8.372;2023-04-01T09:10:56;3.50;;;1.20;;
14994;SDS011;7593;49.006;8.372;2023-04-01T09:19:39;2.10;;;0.93;;
14994;SDS011;7593;49.006;8.372;2023-04-01T09:22:26;2.72;;;1.13;;
14994;SDS011;7593;49.006;8.372;2023-04-01T09:25:23;2.97;;;1.10;;
14994;SDS011;7593;49.006;8.372;2023-04-01T09:27:57;3.67;;;1.20;;
14994;SDS011;7593;49.006;8.372;2023-04-01T09:30:32;3.15;;;1.20;;
14994;SDS011;7593;49.006;8.372;2023-04-01T09:36:12;3.42;;;1.23;;
14994;SDS011;7593;49.006;8.372;2023-04-01T09:38:55;4.57;;;1.08;;
14994;SDS011;7593;49.006;8.372;2023-04-01T09:41:28;2.10;;;0.93;;
14994;SDS011;7593;49.006;8.372;2023-04-01T09:44:03;4.90;;;1.10;;
14994;SDS011;7593;49.006;8.372;2023-04-01T09:46:43;5.00;;;1.17;;
14994;SDS011;7593;49.006;8.372;2023-04-01T09:49:30;4.88;;;2.45;;
14994;SDS011;7593;49.006;8.372;2023-04-01T09:52:14;2.13;;;1.20;;
14994;SDS011;7593;49.006;8.372;2023-04-01T09:55:02;2.75;;;1.10;;
14994;SDS011;7593;49.006;8.372;2023-04-01T10:00:52;2.53;;;1.05;;
14994;SDS011;7593;49.006;8.372;2023-04-01T10:06:34;4.45;;;1.42;;
14994;SDS011;7593;49.006;8.372;2023-04-01T10:09:45;2.58;;;1.10;;
14994;SDS011;7593;49.006;8.372;2023-04-01T10:12:46;2.63;;;1.17;;
14994;SDS011;7593;49.006;8.372;2023-04-01T10:15:30;3.72;;;1.10;;
14994;SDS011;7593;49.006;8.372;2023-04-01T10:18:17;2.42;;;1.10;;
14994;SDS011;7593;49.006;8.372;2023-04-01T10:21:12;3.20;;;1.38;;
14994;SDS011;7593;49.006;8.372;2023-04-01T10:24:10;1.08;;;0.98;;
14994;SDS011;7593;49.006;8.372;2023-04-01T10:27:03;2.42;;;1.20;;
14994;SDS011;7593;49.006;8.372;2023-04-01T10:29:56;1.83;;;0.95;;
14994;SDS011;7593;49.006;8.372;2023-04-01T10:32:59;2.60;;;1.17;;
14994;SDS011;7593;49.006;8.372;2023-04-01T10:35:49;3.25;;;1.55;;
14994;SDS011;7593;49.006;8.372;2023-04-01T10:38:55;1.52;;;1.00;;
14994;SDS011;7593;49.006;8.372;2023-04-01T10:57:02;1.63;;;1.17;;
14994;SDS011;7593;49.006;8.372;2023-04-01T10:59:57;1.83;;;1.40;;
14994;SDS011;7593;49.006;8.372;2023-04-01T11:03:02;2.28;;;1.20;;
14994;SDS011;7593;49.006;8.372;2023-04-01T11:06:23;2.25;;;1.45;;
14994;SDS011;7593;49.006;8.372;2023-04-01T11:09:20;2.00;;;1.30;;
14994;SDS011;7593;49.006;8.372;2023-04-01T11:12:21;2.28;;;1.33;;
14994;SDS011;7593;49.006;8.372;2023-04-01T11:18:19;2.58;;;1.30;;
14994;SDS011;7593;49.006;8.372;2023-04-01T11:21:27;2.30;;;1.08;;
14994;SDS011;7593;49.006;8.372;2023-04-01T11:24:28;1.73;;;1.10;;
14994;SDS011;7593;49.006;8.372;2023-04-01T11:27:15;2.40;;;1.10;;
14994;SDS011;7593;49.006;8.372;2023-04-01T11:32:50;2.13;;;1.13;;
14994;SDS011;7593;49.006;8.372;2023-04-01T11:38:51;1.30;;;1.00;;
14994;SDS011;7593;49.006;8.372;2023-04-01T11:41:38;2.25;;;1.08;;
14994;SDS011;7593;49.006;8.372;2023-04-01T11:44:15;1.92;;;1.20;;
14994;SDS011;7593;49.006;8.372;2023-04-01T11:46:51;2.78;;;1.10;;
14994;SDS011;7593;49.006;8.372;2023-04-01T11:49:41;2.42;;;1.27;;
14994;SDS011;7593;49.006;8.372;2023-04-01T11:55:33;2.28;;;0.90;;
14994;SDS011;7593;49.006;8.372;2023-04-01T11:58:20;2.50;;;1.60;;
14994;SDS011;7593;49.006;8.372;2023-04-01T12:07:05;1.70;;;1.10;;
14994;SDS011;7593;49.006;8.372;2023-04-01T12:09:44;2.55;;;0.95;;
14994;SDS011;7593;49.006;8.372;2023-04-01T12:12:20;4.22;;;1.00;;
14994;SDS011;7593;49.006;8.372;2023-04-01T12:14:56;1.40;;;0.90;;
14994;SDS011;7593;49.006;8.372;2023-04-01T12:17:31;1.67;;;1.10;;
14994;SDS011;7593;49.006;8.372;2023-04-01T12:20:16;1.73;;;0.95;;
14994;SDS011;7593;49.006;8.372;2023-04-01T12:22:55;2.28;;;1.00;;
14994;SDS011;7593;49.006;8.372;2023-04-01T12:25:33;1.88;;;1.23;;
14994;SDS011;7593;49.006;8.372;2023-04-01T12:28:18;1.15;;;0.90;;
14994;SDS011;7593;49.006;8.372;2023-04-01T12:30:58;1.73;;;1.05;;
14994;SDS011;7593;49.006;8.372;2023-04-01T12:33:36;1.83;;;1.05;;
14994;SDS011;7593;49.006;8.372;2023-04-01T12:36:26;1.33;;;0.90;;
14994;SDS011;7593;49.006;8.372;2023-04-01T12:39:17;1.38;;;1.05;;
14994;SDS011;7593;49.006;8.372;2023-04-01T12:41:55;1.80;;;1.00;;
14994;SDS011;7593;49.006;8.372;2023-04-01T12:47:38;1.42;;;1.00;;
14994;SDS011;7593;49.006;8.372;2023-04-01T12:50:26;3.50;;;1.00;;
14994;SDS011;7593;49.006;8.372;2023-04-01T12:53:07;4.10;;;1.13;;
14994;SDS011;7593;49.006;8.372;2023-04-01T12:55:46;1.20;;;0.90;;
14994;SDS011;7593;49.006;8.372;2023-04-01T12:58:29;3.53;;;1.27;;
14994;SDS011;7593;49.006;8.372;2023-04-01T13:01:29;2.53;;;1.27;;
14994;SDS011;7593;49.006;8.372;2023-04-01T13:04:24;1.33;;;1.00;;
14994;SDS011;7593;49.006;8.372;2023-04-01T13:07:11;1.42;;;1.00;;
14994;SDS011;7593;49.006;8.372;2023-04-01T13:09:51;1.13;;;0.80;;
14994;SDS011;7593;49.006;8.372;2023-04-01T13:12:33;1.70;;;0.90;;
14994;SDS011;7593;49.006;8.372;2023-04-01T13:15:27;1.13;;;0.85;;
14994;SDS011;7593;49.006;8.372;2023-04-01T13:18:03;1.48;;;1.10;;
14994;SDS011;7593;49.006;8.372;2023-04-01T13:20:43;3.13;;;0.80;;
14994;SDS011;7593;49.006;8.372;2023-04-01T13:23:19;2.20;;;1.10;;
14994;SDS011;7593;49.006;8.372;2023-04-01T13:25:59;3.17;;;1.25;;
14994;SDS011;7593;49.006;8.372;2023-04-01T13:28:36;1.30;;;1.20;;
14994;SDS011;7593;49.006;8.372;2023-04-01T13:31:08;1.10;;;1.00;;
14994;SDS011;7593;49.006;8.372;2023-04-01T13:33:56;1.48;;;1.00;;
14994;SDS011;7593;49.006;8.372;2023-04-01T13:36:34;1.48;;;1.00;;
14994;SDS011;7593;49.006;8.372;2023-04-01T13:39:15;1.73;;;0.93;;
14994;SDS011;7593;49.006;8.372;2023-04-01T13:42:04;1.55;;;1.10;;
14994;SDS011;7593;49.006;8.372;2023-04-01T13:44:40;1.42;;;1.10;;
14994;SDS011;7593;49.006;8.372;2023-04-01T13:47:22;2.08;;;1.10;;
14994;SDS011;7593;49.006;8.372;2023-04-01T13:50:03;1.98;;;1.10;;
14994;SDS011;7593;49.006;8.372;2023-04-01T13:55:59;2.45;;;1.08;;
14994;SDS011;7593;49.006;8.372;2023-04-01T13:58:55;1.00;;;0.85;;
14994;SDS011;7593;49.006;8.372;2023-04-01T14:01:53;2.10;;;1.10;;
14994;SDS011;7593;49.006;8.372;2023-04-01T14:04:30;0.75;;;0.75;;
14994;SDS011;7593;49.006;8.372;2023-04-01T14:07:18;1.08;;;0.98;;
14994;SDS011;7593;49.006;8.372;2023-04-01T14:10:04;1.63;;;1.40;;
14994;SDS011;7593;49.006;8.372;2023-04-01T14:12:39;1.67;;;1.00;;
14994;SDS011;7593;49.006;8.372;2023-04-01T14:15:23;1.75;;;1.00;;
14994;SDS011;7593;49.006;8.372;2023-04-01T14:18:05;1.52;;;1.10;;
14994;SDS011;7593;49.006;8.372;2023-04-01T14:20:39;1.40;;;0.80;;
14994;SDS011;7593;49.006;8.372;2023-04-01T14:23:31;2.67;;;1.02;;
14994;SDS011;7593;49.006;8.372;2023-04-01T14:26:20;1.42;;;0.90;;
14994;SDS011;7593;49.006;8.372;2023-04-01T14:29:00;1.27;;;0.98;;
14994;SDS011;7593;49.006;8.372;2023-04-01T14:31:41;1.98;;;0.95;;
14994;SDS011;7593;49.006;8.372;2023-04-01T14:34:25;2.67;;;1.38;;
14994;SDS011;7593;49.006;8.372;2023-04-01T14:37:10;1.85;;;1.20;;
14994;SDS011;7593;49.006;8.372;2023-04-01T14:39:54;0.95;;;0.85;;
14994;SDS011;7593;49.006;8.372;2023-04-01T14:42:55;2.05;;;1.20;;
14994;SDS011;7593;49.006;8.372;2023-04-01T14:45:45;1.80;;;1.00;;
14994;SDS011;7593;49.006;8.372;2023-04-01T14:48:25;2.13;;;1.20;;
14994;SDS011;7593;49.006;8.372;2023-04-01T14:50:57;1.50;;;1.25;;
14994;SDS011;7593;49.006;8.372;2023-04-01T14:53:36;1.50;;;1.30;;
14994;SDS011;7593;49.006;8.372;2023-04-01T14:56:11;2.13;;;0.90;;
14994;SDS011;7593;49.006;8.372;2023-04-01T14:58:43;2.08;;;0.98;;
14994;SDS011;7593;49.006;8.372;2023-04-01T15:01:14;2.72;;;1.40;;
14994;SDS011;7593;49.006;8.372;2023-04-01T15:03:53;1.10;;;0.85;;
14994;SDS011;7593;49.006;8.372;2023-04-01T15:06:33;1.55;;;1.10;;
14994;SDS011;7593;49.006;8.372;2023-04-01T15:09:10;1.13;;;0.88;;
14994;SDS011;7593;49.006;8.372;2023-04-01T15:11:49;0.70;;;0.70;;
14994;SDS011;7593;49.006;8.372;2023-04-01T15:14:26;2.00;;;1.20;;
14994;SDS011;7593;49.006;8.372;2023-04-01T15:17:11;1.75;;;0.90;;
14994;SDS011;7593;49.006;8.372;2023-04-01T15:19:51;2.05;;;0.90;;
14994;SDS011;7593;49.006;8.372;2023-04-01T15:22:42;2.10;;;1.40;;
14994;SDS011;7593;49.006;8.372;2023-04-01T15:25:19;1.80;;;1.00;;
14994;SDS011;7593;49.006;8.372;2023-04-01T15:27:57;1.75;;;1.00;;
14994;SDS011;7593;49.006;8.372;2023-04-01T15:30:33;2.97;;;1.10;;
14994;SDS011;7593;49.006;8.372;2023-04-01T15:33:11;2.15;;;0.90;;
14994;SDS011;7593;49.006;8.372;2023-04-01T15:35:46;2.08;;;1.02;;
14994;SDS011;7593;49.006;8.372;2023-04-01T15:38:26;1.30;;;1.00;;
14994;SDS011;7593;49.006;8.372;2023-04-01T15:41:02;1.67;;;1.00;;
14994;SDS011;7593;49.006;8.372;2023-04-01T15:43:39;2.25;;;1.20;;
14994;SDS011;7593;49.006;8.372;2023-04-01T15:46:18;1.30;;;1.00;;
14994;SDS011;7593;49.006;8.372;2023-04-01T15:48:57;2.47;;;1.13;;
14994;SDS011;7593;49.006;8.372;2023-04-01T15:54:44;1.85;;;0.90;;
14994;SDS011;7593;49.006;8.372;2023-04-01T15:57:32;1.30;;;0.93;;
14994;SDS011;7593;49.006;8.372;2023-04-01T16:00:11;3.33;;;1.50;;
14994;SDS011;7593;49.006;8.372;2023-04-01T16:02:51;1.85;;;1.30;;
14994;SDS011;7593;49.006;8.372;2023-04-01T16:05:35;4.43;;;1.63;;
14994;SDS011;7593;49.006;8.372;2023-04-01T16:08:15;3.78;;;1.77;;
14994;SDS011;7593;49.006;8.372;2023-04-01T16:11:04;3.63;;;1.60;;
14994;SDS011;7593;49.006;8.372;2023-04-01T16:13:42;2.25;;;1.38;;
14994;SDS011;7593;49.006;8.372;2023-04-01T16:16:23;2.80;;;1.75;;
14994;SDS011;7593;49.006;8.372;2023-04-01T16:19:03;3.45;;;2.42;;
14994;SDS011;7593;49.006;8.372;2023-04-01T16:21:44;2.35;;;1.50;;
14994;SDS011;7593;49.006;8.372;2023-04-01T16:24:17;3.17;;;1.80;;
14994;SDS011;7593;49.006;8.372;2023-04-01T16:26:51;2.47;;;1.60;;
14994;SDS011;7593;49.006;8.372;2023-04-01T16:29:23;2.53;;;1.98;;
14994;SDS011;7593;49.006;8.372;2023-04-01T16:31:58;3.55;;;2.08;;
14994;SDS011;7593;49.006;8.372;2023-04-01T16:34:41;2.72;;;1.77;;
14994;SDS011;7593;49.006;8.372;2023-04-01T16:37:12;2.00;;;1.25;;
14994;SDS011;7593;49.006;8.372;2023-04-01T16:39:44;3.85;;;1.67;;
14994;SDS011;7593;49.006;8.372;2023-04-01T16:42:31;3.38;;;1.60;;
14994;SDS011;7593;49.006;8.372;2023-04-01T16:45:15;2.88;;;1.20;;
14994;SDS011;7593;49.006;8.372;2023-04-01T16:47:49;3.65;;;1.58;;
14994;SDS011;7593;49.006;8.372;2023-04-01T16:50:19;3.42;;;2.28;;
14994;SDS011;7593;49.006;8.372;2023-04-01T16:52:53;4.25;;;1.60;;
14994;SDS011;7593;49.006;8.372;2023-04-01T16:55:35;2.00;;;1.50;;
14994;SDS011;7593;49.006;8.372;2023-04-01T16:58:10;3.70;;;1.70;;
14994;SDS011;7593;49.006;8.372;2023-04-01T17:00:46;2.20;;;1.45;;
14994;SDS011;7593;49.006;8.372;2023-04-01T17:03:16;2.67;;;1.63;;
14994;SDS011;7593;49.006;8.372;2023-04-01T17:05:50;2.67;;;1.95;;